首页
METAR-TAF:

METAR-TAF

机场 :

哥本哈根凯斯楚普机场

哥本哈根, 丹麦

纬度: 55-37N, 经度: 012-39E, 海拔: 5米

当前天气观测

该预报发布于36分钟前的22:50 UTC
风速10节,风向西转西南
温度 17°C
湿度 88%
气压 1003 hPa
能见度10公里或以上

METAR: EKCH 132250Z AUTO 24010KT 9999 OVC023/// 17/15 Q1003 TEMPO 23018G32KT

时间: 01:26 (23:26 UTC)

预报

该预报发布于1小时和46分钟前的21:40 UTC
预报有效从13日的 21点(UTC)到 14日的 18点(UTC)
风速18节,风向南转西南
能见度10公里或以上
散云层高于2500英尺
短暂存在
从 13日的 21点(UTC)到 13日的 23点(UTC)
风速18节,风向西南,有时为32节阵风
少量云层高于5000英尺, 积雨云.
短暂存在
从 13日的 23点(UTC)到 13日的 24点(UTC)
风速18节,风向西南,有时为32节阵风
成为
从 14日的 00点(UTC)到 14日的 02点(UTC)
风速24节,风向西转西南,有时为36节阵风
成为
从 14日的 07点(UTC)到 14日的 09点(UTC)
风速15节,风向西

TAF: EKCH 132140Z 1321/1418 20018KT 9999 SCT025 TEMPO 1321/1323 23018G32KT FEW050CB TEMPO 1323/1324 23018G32KT BECMG 1400/1402 24024G36KT BECMG 1407/1409 28015KT

超过4000个机场的气象观测和天气预报(METAR&TAF报告)。

可查询的气象台以黄色和红色小点在地图上表示。

将鼠标移到小点上方,可查看气象台名称。

然后点击查看天气观测和预报。

如需切换地图:点击带黑十字的绿色按钮放大地图;点击带横线的绿色按钮缩小地图;或者点击绿色箭头查看邻近地区的地图。


METAR-TAF: